sensor_id;sensor_type;location;lat;lon;timestamp;P1;durP1;ratioP1;P2;durP2;ratioP2
30062;SDS011;16889;67.864;24.990;2022-10-26T00:04:44;13.27;;;2.72;;
30062;SDS011;16889;67.864;24.990;2022-10-26T00:09:30;11.73;;;2.83;;
30062;SDS011;16889;67.864;24.990;2022-10-26T00:14:17;14.38;;;3.03;;
30062;SDS011;16889;67.864;24.990;2022-10-26T00:19:03;12.50;;;2.63;;
30062;SDS011;16889;67.864;24.990;2022-10-26T00:23:48;14.45;;;2.88;;
30062;SDS011;16889;67.864;24.990;2022-10-26T00:28:34;10.18;;;3.28;;
30062;SDS011;16889;67.864;24.990;2022-10-26T00:33:20;11.63;;;3.20;;
30062;SDS011;16889;67.864;24.990;2022-10-26T00:38:06;18.50;;;3.70;;
30062;SDS011;16889;67.864;24.990;2022-10-26T00:42:53;11.93;;;3.35;;
30062;SDS011;16889;67.864;24.990;2022-10-26T00:47:40;9.02;;;3.20;;
30062;SDS011;16889;67.864;24.990;2022-10-26T00:52:29;19.13;;;3.55;;
30062;SDS011;16889;67.864;24.990;2022-10-26T00:57:16;14.65;;;3.78;;
30062;SDS011;16889;67.864;24.990;2022-10-26T01:02:02;11.27;;;3.58;;
30062;SDS011;16889;67.864;24.990;2022-10-26T01:06:48;11.85;;;3.35;;
30062;SDS011;16889;67.864;24.990;2022-10-26T01:11:36;15.80;;;3.45;;
30062;SDS011;16889;67.864;24.990;2022-10-26T01:16:26;14.98;;;3.60;;
30062;SDS011;16889;67.864;24.990;2022-10-26T01:21:21;7.20;;;2.90;;
30062;SDS011;16889;67.864;24.990;2022-10-26T01:31:43;10.40;;;3.42;;
30062;SDS011;16889;67.864;24.990;2022-10-26T01:36:43;12.88;;;3.47;;
30062;SDS011;16889;67.864;24.990;2022-10-26T01:41:45;12.38;;;3.30;;
30062;SDS011;16889;67.864;24.990;2022-10-26T01:46:34;11.82;;;3.53;;
30062;SDS011;16889;67.864;24.990;2022-10-26T01:51:24;12.02;;;4.43;;
30062;SDS011;16889;67.864;24.990;2022-10-26T01:56:17;13.32;;;4.47;;
30062;SDS011;16889;67.864;24.990;2022-10-26T02:06:14;19.25;;;4.97;;
30062;SDS011;16889;67.864;24.990;2022-10-26T02:11:23;13.77;;;4.95;;
30062;SDS011;16889;67.864;24.990;2022-10-26T02:16:24;15.77;;;4.63;;
30062;SDS011;16889;67.864;24.990;2022-10-26T02:21:39;13.93;;;4.35;;
30062;SDS011;16889;67.864;24.990;2022-10-26T02:26:29;11.02;;;4.68;;
30062;SDS011;16889;67.864;24.990;2022-10-26T02:31:17;12.50;;;5.50;;
30062;SDS011;16889;67.864;24.990;2022-10-26T02:40:53;20.17;;;6.28;;
30062;SDS011;16889;67.864;24.990;2022-10-26T02:45:45;18.58;;;5.90;;
30062;SDS011;16889;67.864;24.990;2022-10-26T02:50:37;15.10;;;5.72;;
30062;SDS011;16889;67.864;24.990;2022-10-26T02:55:50;15.32;;;5.45;;
30062;SDS011;16889;67.864;24.990;2022-10-26T03:00:37;11.77;;;4.72;;
30062;SDS011;16889;67.864;24.990;2022-10-26T03:05:24;11.15;;;4.82;;
30062;SDS011;16889;67.864;24.990;2022-10-26T03:10:12;9.80;;;4.57;;
30062;SDS011;16889;67.864;24.990;2022-10-26T03:14:59;6.07;;;3.53;;
30062;SDS011;16889;67.864;24.990;2022-10-26T03:19:45;6.57;;;3.33;;
30062;SDS011;16889;67.864;24.990;2022-10-26T03:24:30;7.30;;;3.03;;
30062;SDS011;16889;67.864;24.990;2022-10-26T03:29:16;5.47;;;2.92;;
30062;SDS011;16889;67.864;24.990;2022-10-26T03:34:02;5.10;;;2.55;;
30062;SDS011;16889;67.864;24.990;2022-10-26T03:38:48;6.63;;;2.55;;
30062;SDS011;16889;67.864;24.990;2022-10-26T03:43:34;5.03;;;2.53;;
30062;SDS011;16889;67.864;24.990;2022-10-26T03:48:20;3.55;;;2.08;;
30062;SDS011;16889;67.864;24.990;2022-10-26T03:53:06;5.25;;;2.28;;
30062;SDS011;16889;67.864;24.990;2022-10-26T03:57:52;4.78;;;2.33;;
30062;SDS011;16889;67.864;24.990;2022-10-26T04:02:38;4.75;;;1.95;;
30062;SDS011;16889;67.864;24.990;2022-10-26T04:07:24;2.15;;;1.83;;
30062;SDS011;16889;67.864;24.990;2022-10-26T04:12:10;3.30;;;1.88;;
30062;SDS011;16889;67.864;24.990;2022-10-26T04:16:56;4.75;;;2.03;;
30062;SDS011;16889;67.864;24.990;2022-10-26T04:21:42;4.15;;;2.20;;
30062;SDS011;16889;67.864;24.990;2022-10-26T04:26:28;3.65;;;2.33;;
30062;SDS011;16889;67.864;24.990;2022-10-26T04:31:14;3.58;;;2.05;;
30062;SDS011;16889;67.864;24.990;2022-10-26T04:36:00;4.18;;;2.15;;
30062;SDS011;16889;67.864;24.990;2022-10-26T04:40:47;3.70;;;2.30;;
30062;SDS011;16889;67.864;24.990;2022-10-26T04:45:35;3.10;;;1.98;;
30062;SDS011;16889;67.864;24.990;2022-10-26T04:50:21;3.78;;;2.30;;
30062;SDS011;16889;67.864;24.990;2022-10-26T04:55:07;3.72;;;2.30;;
30062;SDS011;16889;67.864;24.990;2022-10-26T04:59:53;2.80;;;2.10;;
30062;SDS011;16889;67.864;24.990;2022-10-26T05:04:39;3.97;;;2.20;;
30062;SDS011;16889;67.864;24.990;2022-10-26T05:09:25;4.00;;;2.45;;
30062;SDS011;16889;67.864;24.990;2022-10-26T05:14:11;4.47;;;2.42;;
30062;SDS011;16889;67.864;24.990;2022-10-26T05:18:57;3.92;;;2.47;;
30062;SDS011;16889;67.864;24.990;2022-10-26T05:23:43;3.67;;;2.10;;
30062;SDS011;16889;67.864;24.990;2022-10-26T05:28:35;4.22;;;2.30;;
30062;SDS011;16889;67.864;24.990;2022-10-26T05:33:21;4.90;;;2.42;;
30062;SDS011;16889;67.864;24.990;2022-10-26T05:38:11;4.55;;;2.30;;
30062;SDS011;16889;67.864;24.990;2022-10-26T05:42:59;4.45;;;2.53;;
30062;SDS011;16889;67.864;24.990;2022-10-26T05:47:48;5.65;;;2.50;;
30062;SDS011;16889;67.864;24.990;2022-10-26T05:52:41;3.65;;;2.40;;
30062;SDS011;16889;67.864;24.990;2022-10-26T05:57:28;4.97;;;2.25;;
30062;SDS011;16889;67.864;24.990;2022-10-26T06:02:25;5.03;;;2.45;;
30062;SDS011;16889;67.864;24.990;2022-10-26T06:07:28;5.40;;;2.67;;
30062;SDS011;16889;67.864;24.990;2022-10-26T06:12:15;4.50;;;2.40;;
30062;SDS011;16889;67.864;24.990;2022-10-26T06:22:19;4.18;;;2.70;;
30062;SDS011;16889;67.864;24.990;2022-10-26T06:27:37;4.78;;;2.33;;
30062;SDS011;16889;67.864;24.990;2022-10-26T06:32:26;5.10;;;2.30;;
30062;SDS011;16889;67.864;24.990;2022-10-26T06:37:13;2.85;;;1.92;;
30062;SDS011;16889;67.864;24.990;2022-10-26T06:41:59;2.70;;;1.80;;
30062;SDS011;16889;67.864;24.990;2022-10-26T06:51:37;5.57;;;2.40;;
30062;SDS011;16889;67.864;24.990;2022-10-26T06:56:30;3.63;;;2.00;;
30062;SDS011;16889;67.864;24.990;2022-10-26T07:01:17;3.20;;;2.20;;
30062;SDS011;16889;67.864;24.990;2022-10-26T07:06:03;2.70;;;2.10;;
30062;SDS011;16889;67.864;24.990;2022-10-26T07:10:50;4.30;;;2.50;;
30062;SDS011;16889;67.864;24.990;2022-10-26T07:15:36;3.95;;;1.83;;
30062;SDS011;16889;67.864;24.990;2022-10-26T07:20:23;4.28;;;2.42;;
30062;SDS011;16889;67.864;24.990;2022-10-26T07:25:09;3.47;;;2.15;;
30062;SDS011;16889;67.864;24.990;2022-10-26T07:29:56;2.90;;;1.70;;
30062;SDS011;16889;67.864;24.990;2022-10-26T07:34:42;3.13;;;1.80;;
30062;SDS011;16889;67.864;24.990;2022-10-26T07:39:28;3.58;;;2.40;;
30062;SDS011;16889;67.864;24.990;2022-10-26T07:44:16;2.78;;;1.80;;
30062;SDS011;16889;67.864;24.990;2022-10-26T07:49:03;2.25;;;1.58;;
30062;SDS011;16889;67.864;24.990;2022-10-26T07:53:49;1.80;;;1.58;;
30062;SDS011;16889;67.864;24.990;2022-10-26T07:58:35;2.15;;;1.70;;
30062;SDS011;16889;67.864;24.990;2022-10-26T08:03:21;2.65;;;1.73;;
30062;SDS011;16889;67.864;24.990;2022-10-26T08:08:07;2.05;;;1.60;;
30062;SDS011;16889;67.864;24.990;2022-10-26T08:12:53;2.05;;;1.52;;
30062;SDS011;16889;67.864;24.990;2022-10-26T08:17:39;2.28;;;1.80;;
30062;SDS011;16889;67.864;24.990;2022-10-26T08:22:27;1.98;;;1.58;;
30062;SDS011;16889;67.864;24.990;2022-10-26T08:27:14;1.63;;;1.38;;
30062;SDS011;16889;67.864;24.990;2022-10-26T08:32:00;2.50;;;1.40;;
30062;SDS011;16889;67.864;24.990;2022-10-26T08:36:46;2.97;;;1.70;;
30062;SDS011;16889;67.864;24.990;2022-10-26T08:41:40;2.20;;;1.50;;
30062;SDS011;16889;67.864;24.990;2022-10-26T08:46:29;2.28;;;1.70;;
30062;SDS011;16889;67.864;24.990;2022-10-26T08:51:24;2.35;;;1.50;;
30062;SDS011;16889;67.864;24.990;2022-10-26T08:56:22;1.55;;;1.40;;
30062;SDS011;16889;67.864;24.990;2022-10-26T09:01:24;1.98;;;1.50;;
30062;SDS011;16889;67.864;24.990;2022-10-26T09:06:23;2.05;;;1.40;;
30062;SDS011;16889;67.864;24.990;2022-10-26T09:16:47;1.85;;;1.40;;
30062;SDS011;16889;67.864;24.990;2022-10-26T09:27:19;1.80;;;1.40;;
30062;SDS011;16889;67.864;24.990;2022-10-26T09:32:16;2.40;;;1.30;;
30062;SDS011;16889;67.864;24.990;2022-10-26T09:47:36;3.72;;;1.33;;
30062;SDS011;16889;67.864;24.990;2022-10-26T09:52:24;1.98;;;1.20;;
30062;SDS011;16889;67.864;24.990;2022-10-26T09:57:12;1.65;;;1.20;;
30062;SDS011;16889;67.864;24.990;2022-10-26T10:01:59;2.00;;;1.42;;
30062;SDS011;16889;67.864;24.990;2022-10-26T10:06:47;2.22;;;1.40;;
30062;SDS011;16889;67.864;24.990;2022-10-26T10:11:45;1.73;;;1.42;;
30062;SDS011;16889;67.864;24.990;2022-10-26T10:16:39;1.80;;;1.50;;
30062;SDS011;16889;67.864;24.990;2022-10-26T10:21:36;2.33;;;1.50;;
30062;SDS011;16889;67.864;24.990;2022-10-26T10:26:23;1.53;;;1.33;;
30062;SDS011;16889;67.864;24.990;2022-10-26T10:31:26;1.38;;;1.17;;
30062;SDS011;16889;67.864;24.990;2022-10-26T10:36:15;3.55;;;1.30;;
30062;SDS011;16889;67.864;24.990;2022-10-26T10:41:05;1.52;;;1.30;;
30062;SDS011;16889;67.864;24.990;2022-10-26T10:46:16;1.33;;;0.95;;
30062;SDS011;16889;67.864;24.990;2022-10-26T10:51:05;2.00;;;1.35;;
30062;SDS011;16889;67.864;24.990;2022-10-26T10:56:00;1.80;;;1.50;;
30062;SDS011;16889;67.864;24.990;2022-10-26T11:00:49;1.50;;;1.38;;
30062;SDS011;16889;67.864;24.990;2022-10-26T11:05:45;3.33;;;1.70;;
30062;SDS011;16889;67.864;24.990;2022-10-26T11:10:52;2.10;;;1.42;;
30062;SDS011;16889;67.864;24.990;2022-10-26T11:15:47;1.38;;;1.20;;
30062;SDS011;16889;67.864;24.990;2022-10-26T11:20:39;2.55;;;1.35;;
30062;SDS011;16889;67.864;24.990;2022-10-26T11:25:52;1.38;;;1.20;;
30062;SDS011;16889;67.864;24.990;2022-10-26T11:30:46;1.67;;;1.40;;
30062;SDS011;16889;67.864;24.990;2022-10-26T11:46:17;2.05;;;1.20;;
30062;SDS011;16889;67.864;24.990;2022-10-26T11:51:10;2.15;;;1.10;;
30062;SDS011;16889;67.864;24.990;2022-10-26T11:56:12;1.25;;;1.10;;
30062;SDS011;16889;67.864;24.990;2022-10-26T12:01:09;2.00;;;1.30;;
30062;SDS011;16889;67.864;24.990;2022-10-26T12:05:58;1.48;;;1.17;;
30062;SDS011;16889;67.864;24.990;2022-10-26T12:10:47;1.58;;;1.17;;
30062;SDS011;16889;67.864;24.990;2022-10-26T12:15:47;2.30;;;1.05;;
30062;SDS011;16889;67.864;24.990;2022-10-26T12:25:39;1.35;;;1.02;;
30062;SDS011;16889;67.864;24.990;2022-10-26T12:30:30;1.58;;;1.20;;
30062;SDS011;16889;67.864;24.990;2022-10-26T12:35:28;2.78;;;1.33;;
30062;SDS011;16889;67.864;24.990;2022-10-26T12:45:19;1.65;;;1.13;;
30062;SDS011;16889;67.864;24.990;2022-10-26T12:55:03;1.85;;;1.08;;
30062;SDS011;16889;67.864;24.990;2022-10-26T13:00:01;1.90;;;1.08;;
30062;SDS011;16889;67.864;24.990;2022-10-26T13:05:00;1.75;;;1.33;;
30062;SDS011;16889;67.864;24.990;2022-10-26T13:15:01;1.40;;;1.25;;
30062;SDS011;16889;67.864;24.990;2022-10-26T13:19:50;2.78;;;1.40;;
30062;SDS011;16889;67.864;24.990;2022-10-26T13:24:46;1.73;;;1.30;;
30062;SDS011;16889;67.864;24.990;2022-10-26T13:35:03;1.80;;;1.40;;
30062;SDS011;16889;67.864;24.990;2022-10-26T13:44:48;3.53;;;1.60;;
30062;SDS011;16889;67.864;24.990;2022-10-26T13:49:51;2.85;;;1.30;;
30062;SDS011;16889;67.864;24.990;2022-10-26T13:55:15;1.33;;;0.88;;
30062;SDS011;16889;67.864;24.990;2022-10-26T14:00:07;1.90;;;0.80;;
30062;SDS011;16889;67.864;24.990;2022-10-26T14:05:15;3.85;;;1.13;;
30062;SDS011;16889;67.864;24.990;2022-10-26T14:10:02;0.80;;;0.75;;
30062;SDS011;16889;67.864;24.990;2022-10-26T14:14:49;1.20;;;0.70;;
30062;SDS011;16889;67.864;24.990;2022-10-26T14:19:37;1.48;;;1.10;;
30062;SDS011;16889;67.864;24.990;2022-10-26T14:24:29;3.35;;;0.90;;
30062;SDS011;16889;67.864;24.990;2022-10-26T14:29:20;0.80;;;0.80;;
30062;SDS011;16889;67.864;24.990;2022-10-26T14:34:08;0.82;;;0.80;;
30062;SDS011;16889;67.864;24.990;2022-10-26T14:38:57;1.63;;;1.05;;
30062;SDS011;16889;67.864;24.990;2022-10-26T14:43:52;2.53;;;0.80;;
30062;SDS011;16889;67.864;24.990;2022-10-26T14:48:49;1.23;;;1.00;;
30062;SDS011;16889;67.864;24.990;2022-10-26T14:53:38;1.35;;;0.93;;
30062;SDS011;16889;67.864;24.990;2022-10-26T14:58:26;1.25;;;0.90;;
30062;SDS011;16889;67.864;24.990;2022-10-26T15:03:15;1.00;;;0.85;;
30062;SDS011;16889;67.864;24.990;2022-10-26T15:08:01;1.20;;;0.70;;
30062;SDS011;16889;67.864;24.990;2022-10-26T15:12:47;2.53;;;1.08;;
30062;SDS011;16889;67.864;24.990;2022-10-26T15:17:35;1.92;;;1.00;;
30062;SDS011;16889;67.864;24.990;2022-10-26T15:22:25;1.20;;;0.80;;
30062;SDS011;16889;67.864;24.990;2022-10-26T15:27:16;2.42;;;1.00;;
30062;SDS011;16889;67.864;24.990;2022-10-26T15:32:03;2.83;;;0.90;;
30062;SDS011;16889;67.864;24.990;2022-10-26T15:37:00;2.05;;;0.80;;
30062;SDS011;16889;67.864;24.990;2022-10-26T15:41:47;1.38;;;0.70;;
30062;SDS011;16889;67.864;24.990;2022-10-26T15:46:33;1.48;;;0.68;;
30062;SDS011;16889;67.864;24.990;2022-10-26T15:51:20;3.78;;;1.20;;
30062;SDS011;16889;67.864;24.990;2022-10-26T15:56:17;0.77;;;0.70;;
30062;SDS011;16889;67.864;24.990;2022-10-26T16:01:04;0.75;;;0.57;;
30062;SDS011;16889;67.864;24.990;2022-10-26T16:05:57;0.93;;;0.60;;
30062;SDS011;16889;67.864;24.990;2022-10-26T16:10:45;1.45;;;0.70;;
30062;SDS011;16889;67.864;24.990;2022-10-26T16:15:31;0.70;;;0.70;;
30062;SDS011;16889;67.864;24.990;2022-10-26T16:20:21;1.27;;;0.80;;
30062;SDS011;16889;67.864;24.990;2022-10-26T16:25:08;3.65;;;0.80;;
30062;SDS011;16889;67.864;24.990;2022-10-26T16:29:54;1.90;;;0.80;;
30062;SDS011;16889;67.864;24.990;2022-10-26T16:34:40;1.10;;;0.70;;
30062;SDS011;16889;67.864;24.990;2022-10-26T16:39:26;2.97;;;0.93;;
30062;SDS011;16889;67.864;24.990;2022-10-26T16:44:12;1.13;;;0.90;;
30062;SDS011;16889;67.864;24.990;2022-10-26T16:48:58;1.40;;;0.77;;
30062;SDS011;16889;67.864;24.990;2022-10-26T16:53:48;1.00;;;0.90;;
30062;SDS011;16889;67.864;24.990;2022-10-26T16:58:36;1.13;;;0.80;;
30062;SDS011;16889;67.864;24.990;2022-10-26T17:03:22;6.77;;;1.03;;
30062;SDS011;16889;67.864;24.990;2022-10-26T17:08:08;2.00;;;1.10;;
30062;SDS011;16889;67.864;24.990;2022-10-26T17:12:54;1.25;;;1.00;;
30062;SDS011;16889;67.864;24.990;2022-10-26T17:17:40;3.00;;;1.33;;
30062;SDS011;16889;67.864;24.990;2022-10-26T17:22:26;5.40;;;1.00;;
30062;SDS011;16889;67.864;24.990;2022-10-26T17:27:12;2.17;;;1.10;;
30062;SDS011;16889;67.864;24.990;2022-10-26T17:32:01;3.40;;;0.90;;
30062;SDS011;16889;67.864;24.990;2022-10-26T17:36:47;6.10;;;1.02;;
30062;SDS011;16889;67.864;24.990;2022-10-26T17:41:33;0.75;;;0.70;;
30062;SDS011;16889;67.864;24.990;2022-10-26T17:46:19;1.40;;;1.00;;
30062;SDS011;16889;67.864;24.990;2022-10-26T17:51:12;2.05;;;1.00;;
30062;SDS011;16889;67.864;24.990;2022-10-26T18:01:00;5.43;;;2.10;;
30062;SDS011;16889;67.864;24.990;2022-10-26T18:05:48;2.65;;;1.40;;
30062;SDS011;16889;67.864;24.990;2022-10-26T18:10:35;4.77;;;1.60;;
30062;SDS011;16889;67.864;24.990;2022-10-26T18:15:21;3.85;;;1.95;;
30062;SDS011;16889;67.864;24.990;2022-10-26T18:20:08;4.30;;;1.60;;
30062;SDS011;16889;67.864;24.990;2022-10-26T18:24:57;3.88;;;1.52;;
30062;SDS011;16889;67.864;24.990;2022-10-26T18:29:44;3.05;;;1.83;;
30062;SDS011;16889;67.864;24.990;2022-10-26T18:34:30;4.63;;;1.83;;
30062;SDS011;16889;67.864;24.990;2022-10-26T18:39:16;6.07;;;1.50;;
30062;SDS011;16889;67.864;24.990;2022-10-26T18:44:02;11.23;;;1.20;;
30062;SDS011;16889;67.864;24.990;2022-10-26T18:48:49;2.30;;;1.20;;
30062;SDS011;16889;67.864;24.990;2022-10-26T18:53:45;6.13;;;1.48;;
30062;SDS011;16889;67.864;24.990;2022-10-26T18:58:35;3.30;;;0.98;;
30062;SDS011;16889;67.864;24.990;2022-10-26T19:03:22;2.25;;;1.00;;
30062;SDS011;16889;67.864;24.990;2022-10-26T19:08:08;9.27;;;1.20;;
30062;SDS011;16889;67.864;24.990;2022-10-26T19:12:54;0.75;;;0.75;;
30062;SDS011;16889;67.864;24.990;2022-10-26T19:17:41;27.08;;;1.73;;
30062;SDS011;16889;67.864;24.990;2022-10-26T19:22:27;1.02;;;0.90;;
30062;SDS011;16889;67.864;24.990;2022-10-26T19:27:13;1.60;;;1.13;;
30062;SDS011;16889;67.864;24.990;2022-10-26T19:31:59;5.03;;;1.10;;
30062;SDS011;16889;67.864;24.990;2022-10-26T19:41:32;1.13;;;0.88;;
30062;SDS011;16889;67.864;24.990;2022-10-26T19:46:20;2.08;;;1.02;;
30062;SDS011;16889;67.864;24.990;2022-10-26T19:51:08;9.07;;;0.90;;
30062;SDS011;16889;67.864;24.990;2022-10-26T19:55:57;1.95;;;0.90;;
30062;SDS011;16889;67.864;24.990;2022-10-26T20:00:45;2.10;;;0.80;;
30062;SDS011;16889;67.864;24.990;2022-10-26T20:05:31;1.10;;;1.00;;
30062;SDS011;16889;67.864;24.990;2022-10-26T20:10:17;1.05;;;0.77;;
30062;SDS011;16889;67.864;24.990;2022-10-26T20:15:03;1.08;;;0.90;;
30062;SDS011;16889;67.864;24.990;2022-10-26T20:19:51;5.03;;;1.10;;
30062;SDS011;16889;67.864;24.990;2022-10-26T20:24:39;3.88;;;1.30;;
30062;SDS011;16889;67.864;24.990;2022-10-26T20:29:25;1.13;;;0.90;;
30062;SDS011;16889;67.864;24.990;2022-10-26T20:34:11;2.15;;;1.02;;
30062;SDS011;16889;67.864;24.990;2022-10-26T20:38:58;1.60;;;0.95;;
30062;SDS011;16889;67.864;24.990;2022-10-26T20:43:44;5.05;;;1.48;;
30062;SDS011;16889;67.864;24.990;2022-10-26T20:48:31;2.00;;;1.20;;
30062;SDS011;16889;67.864;24.990;2022-10-26T20:53:19;3.35;;;1.40;;
30062;SDS011;16889;67.864;24.990;2022-10-26T21:03:07;1.08;;;0.80;;
30062;SDS011;16889;67.864;24.990;2022-10-26T21:07:54;1.40;;;1.02;;
30062;SDS011;16889;67.864;24.990;2022-10-26T21:12:40;2.10;;;1.10;;
30062;SDS011;16889;67.864;24.990;2022-10-26T21:17:26;1.00;;;0.90;;
30062;SDS011;16889;67.864;24.990;2022-10-26T21:22:12;2.05;;;0.80;;
30062;SDS011;16889;67.864;24.990;2022-10-26T21:26:59;1.80;;;1.10;;
30062;SDS011;16889;67.864;24.990;2022-10-26T21:31:45;2.28;;;1.10;;
30062;SDS011;16889;67.864;24.990;2022-10-26T21:36:32;2.20;;;0.80;;
30062;SDS011;16889;67.864;24.990;2022-10-26T21:41:18;2.65;;;0.77;;
30062;SDS011;16889;67.864;24.990;2022-10-26T21:46:05;1.02;;;0.90;;
30062;SDS011;16889;67.864;24.990;2022-10-26T21:50:53;2.35;;;1.00;;
30062;SDS011;16889;67.864;24.990;2022-10-26T21:55:40;1.48;;;0.90;;
30062;SDS011;16889;67.864;24.990;2022-10-26T22:00:26;1.98;;;0.80;;
30062;SDS011;16889;67.864;24.990;2022-10-26T22:05:12;2.33;;;0.80;;
30062;SDS011;16889;67.864;24.990;2022-10-26T22:09:58;1.38;;;0.80;;
30062;SDS011;16889;67.864;24.990;2022-10-26T22:14:44;1.02;;;0.77;;
30062;SDS011;16889;67.864;24.990;2022-10-26T22:19:30;0.88;;;0.63;;
30062;SDS011;16889;67.864;24.990;2022-10-26T22:24:16;0.85;;;0.70;;
30062;SDS011;16889;67.864;24.990;2022-10-26T22:29:02;1.05;;;0.85;;
30062;SDS011;16889;67.864;24.990;2022-10-26T22:33:59;0.90;;;0.70;;
30062;SDS011;16889;67.864;24.990;2022-10-26T22:43:34;1.00;;;0.68;;
30062;SDS011;16889;67.864;24.990;2022-10-26T22:48:20;0.90;;;0.80;;
30062;SDS011;16889;67.864;24.990;2022-10-26T22:53:06;1.45;;;0.60;;
30062;SDS011;16889;67.864;24.990;2022-10-26T22:57:52;1.13;;;0.80;;
30062;SDS011;16889;67.864;24.990;2022-10-26T23:02:38;1.17;;;0.80;;
30062;SDS011;16889;67.864;24.990;2022-10-26T23:07:24;0.52;;;0.52;;
30062;SDS011;16889;67.864;24.990;2022-10-26T23:12:10;1.40;;;0.82;;
30062;SDS011;16889;67.864;24.990;2022-10-26T23:16:56;0.70;;;0.70;;
30062;SDS011;16889;67.864;24.990;2022-10-26T23:21:42;1.08;;;0.70;;
30062;SDS011;16889;67.864;24.990;2022-10-26T23:26:31;4.40;;;0.90;;
30062;SDS011;16889;67.864;24.990;2022-10-26T23:31:18;1.80;;;0.80;;
30062;SDS011;16889;67.864;24.990;2022-10-26T23:36:06;0.90;;;0.63;;
30062;SDS011;16889;67.864;24.990;2022-10-26T23:40:53;0.95;;;0.70;;
30062;SDS011;16889;67.864;24.990;2022-10-26T23:45:41;0.63;;;0.60;;
30062;SDS011;16889;67.864;24.990;2022-10-26T23:50:27;0.60;;;0.60;;
30062;SDS011;16889;67.864;24.990;2022-10-26T23:55:14;1.00;;;0.70;;
